createdAt,value
2018-06-10T00:00:34.848Z,4.67
2018-06-10T00:03:04.113Z,5.70
2018-06-10T00:05:33.372Z,5.60
2018-06-10T00:08:02.688Z,5.43
2018-06-10T00:10:31.987Z,5.50
2018-06-10T00:13:00.747Z,4.80
2018-06-10T00:15:30.042Z,5.73
2018-06-10T00:17:59.324Z,5.10
2018-06-10T00:20:28.608Z,5.27
2018-06-10T00:22:57.888Z,5.07
2018-06-10T00:25:27.129Z,5.60
2018-06-10T00:27:56.440Z,5.23
2018-06-10T00:30:25.818Z,5.37
2018-06-10T00:32:55.080Z,4.60
2018-06-10T00:35:23.817Z,5.27
2018-06-10T00:37:53.113Z,4.80
2018-06-10T00:40:22.375Z,4.67
2018-06-10T00:42:51.618Z,5.30
2018-06-10T00:45:20.933Z,4.30
2018-06-10T00:47:50.214Z,4.33
2018-06-10T00:50:19.472Z,5.10
2018-06-10T00:52:48.769Z,5.17
2018-06-10T00:55:18.020Z,5.50
2018-06-10T00:57:47.441Z,5.03
2018-06-10T01:00:16.889Z,4.07
2018-06-10T01:02:46.291Z,5.37
2018-06-10T01:05:15.815Z,5.03
2018-06-10T01:07:45.242Z,4.97
2018-06-10T01:10:14.635Z,4.40
2018-06-10T01:12:43.993Z,4.70
2018-06-10T01:15:13.283Z,4.70
2018-06-10T01:17:42.008Z,4.17
2018-06-10T01:20:11.265Z,5.27
2018-06-10T01:22:40.520Z,4.33
2018-06-10T01:25:09.833Z,5.30
2018-06-10T01:27:39.133Z,5.60
2018-06-10T01:30:08.406Z,5.27
2018-06-10T01:32:37.723Z,5.37
2018-06-10T01:35:07.021Z,5.43
2018-06-10T01:37:36.396Z,5.47
2018-06-10T01:40:05.631Z,5.60
2018-06-10T01:42:34.894Z,5.60
2018-06-10T01:45:04.302Z,5.03
2018-06-10T01:47:33.571Z,5.90
2018-06-10T01:50:02.892Z,6.60
2018-06-10T01:52:32.151Z,5.90
2018-06-10T01:55:01.445Z,5.53
2018-06-10T01:57:30.704Z,6.00
2018-06-10T01:59:59.994Z,4.87
2018-06-10T02:02:29.226Z,4.87
2018-06-10T02:04:58.461Z,5.87
2018-06-10T02:07:27.291Z,5.40
2018-06-10T02:09:56.578Z,5.33
2018-06-10T02:12:25.841Z,6.33
2018-06-10T02:14:54.724Z,5.40
2018-06-10T02:17:23.446Z,5.47
2018-06-10T02:19:52.711Z,5.20
2018-06-10T02:22:21.986Z,5.30
2018-06-10T02:24:51.228Z,6.40
2018-06-10T02:27:20.482Z,5.13
2018-06-10T02:29:49.778Z,4.80
2018-06-10T02:32:19.064Z,5.70
2018-06-10T02:34:48.387Z,6.10
2018-06-10T02:37:17.710Z,5.50
2018-06-10T02:39:48.041Z,6.00
2018-06-10T02:42:17.355Z,5.00
2018-06-10T02:44:46.724Z,4.90
2018-06-10T02:47:16.050Z,5.73
2018-06-10T02:49:44.791Z,4.57
2018-06-10T02:52:14.060Z,6.00
2018-06-10T02:54:43.318Z,6.17
2018-06-10T02:57:12.092Z,5.67
2018-06-10T02:59:41.360Z,5.20
2018-06-10T03:02:10.591Z,5.17
2018-06-10T03:04:39.889Z,5.10
2018-06-10T03:07:09.169Z,5.00
2018-06-10T03:09:38.469Z,5.47
2018-06-10T03:12:07.760Z,4.77
2018-06-10T03:14:37.084Z,5.60
2018-06-10T03:17:06.461Z,5.30
2018-06-10T03:19:35.822Z,5.47
2018-06-10T03:22:05.059Z,5.80
2018-06-10T03:24:34.358Z,4.93
2018-06-10T03:27:03.673Z,5.00
2018-06-10T03:29:32.923Z,5.00
2018-06-10T03:32:02.247Z,4.87
2018-06-10T03:34:31.532Z,4.93
2018-06-10T03:37:00.783Z,5.03
2018-06-10T03:39:30.045Z,5.00
2018-06-10T03:41:59.398Z,5.97
2018-06-10T03:44:28.693Z,5.00
2018-06-10T03:46:57.978Z,5.87
2018-06-10T03:49:27.355Z,5.30
2018-06-10T03:51:56.656Z,5.37
2018-06-10T03:54:25.942Z,5.50
2018-06-10T03:56:55.256Z,5.27
2018-06-10T03:59:24.482Z,6.67
2018-06-10T04:01:53.763Z,6.10
2018-06-10T04:04:23.031Z,5.00
2018-06-10T04:06:52.258Z,5.97
2018-06-10T04:09:21.536Z,5.40
2018-06-10T04:11:50.848Z,5.53
2018-06-10T04:14:20.099Z,5.10
2018-06-10T04:16:49.386Z,4.80
2018-06-10T04:19:18.669Z,5.77
2018-06-10T04:21:47.995Z,6.23
2018-06-10T04:24:17.294Z,5.33
2018-06-10T04:26:46.557Z,5.57
2018-06-10T04:29:15.843Z,5.60
2018-06-10T04:31:45.129Z,4.97
2018-06-10T04:34:14.502Z,5.33
2018-06-10T04:36:43.240Z,5.53
2018-06-10T04:39:12.490Z,4.87
2018-06-10T04:41:41.809Z,5.90
2018-06-10T04:44:11.062Z,4.80
2018-06-10T04:46:40.331Z,5.83
2018-06-10T04:49:09.613Z,5.80
2018-06-10T04:51:38.912Z,6.13
2018-06-10T04:54:08.201Z,5.37
2018-06-10T04:56:37.509Z,5.47
2018-06-10T04:59:06.787Z,5.10
2018-06-10T05:01:36.095Z,5.10
2018-06-10T05:04:05.053Z,5.77
2018-06-10T05:06:34.366Z,4.73
2018-06-10T05:09:03.890Z,4.87
2018-06-10T05:11:32.633Z,5.33
2018-06-10T05:14:01.900Z,5.00
2018-06-10T05:16:31.180Z,4.43
2018-06-10T05:19:00.772Z,4.67
2018-06-10T05:21:30.061Z,5.63
2018-06-10T05:23:59.339Z,6.13
2018-06-10T05:26:28.684Z,4.90
2018-06-10T05:28:57.403Z,6.33
2018-06-10T05:31:26.686Z,5.77
2018-06-10T05:33:55.961Z,5.53
2018-06-10T05:36:25.275Z,4.70
2018-06-10T05:38:54.556Z,5.33
2018-06-10T05:41:23.870Z,5.03
2018-06-10T05:43:52.597Z,6.40
2018-06-10T05:46:21.903Z,5.30
2018-06-10T05:48:51.193Z,4.80
2018-06-10T05:51:20.522Z,5.03
2018-06-10T05:53:49.792Z,5.17
2018-06-10T05:56:19.116Z,5.20
2018-06-10T05:58:48.375Z,5.70
2018-06-10T06:01:17.666Z,5.60
2018-06-10T06:03:50.330Z,5.90
2018-06-10T06:06:19.059Z,6.00
2018-06-10T06:08:48.418Z,6.00
2018-06-10T06:11:17.716Z,5.50
2018-06-10T06:13:46.447Z,4.87
2018-06-10T06:16:15.809Z,6.57
2018-06-10T06:18:44.572Z,6.43
2018-06-10T06:21:14.052Z,6.20
2018-06-10T06:23:43.510Z,6.20
2018-06-10T06:26:12.371Z,5.90
2018-06-10T06:28:41.663Z,4.93
2018-06-10T06:31:10.918Z,6.90
2018-06-10T06:33:40.193Z,6.13
2018-06-10T06:36:08.987Z,5.70
2018-06-10T06:38:38.268Z,6.03
2018-06-10T06:41:07.556Z,5.63
2018-06-10T06:43:36.885Z,5.47
2018-06-10T06:46:06.192Z,6.57
2018-06-10T06:48:35.508Z,6.17
2018-06-10T06:51:05.167Z,5.23
2018-06-10T06:53:34.436Z,5.90
2018-06-10T06:56:04.261Z,7.03
2018-06-10T06:58:33.672Z,5.60
2018-06-10T07:01:03.012Z,6.50
2018-06-10T07:03:32.313Z,6.90
2018-06-10T07:06:02.542Z,7.00
2018-06-10T07:08:31.882Z,5.60
2018-06-10T07:11:01.147Z,6.10
2018-06-10T07:13:30.408Z,6.83
2018-06-10T07:15:59.914Z,8.63
2018-06-10T07:18:29.187Z,10.87
2018-06-10T07:20:58.508Z,11.10
2018-06-10T07:23:27.840Z,10.53
2018-06-10T07:25:57.128Z,8.93
2018-06-10T07:28:25.894Z,8.83
2018-06-10T07:30:55.223Z,8.43
2018-06-10T07:33:24.581Z,7.60
2018-06-10T07:35:53.875Z,6.33
2018-06-10T07:38:23.171Z,6.97
2018-06-10T07:40:52.556Z,5.80
2018-06-10T07:43:21.831Z,6.63
2018-06-10T07:45:51.215Z,6.70
2018-06-10T07:48:20.626Z,6.87
2018-06-10T07:50:49.949Z,6.22
2018-06-10T07:53:19.235Z,6.60
2018-06-10T07:55:48.558Z,5.13
2018-06-10T07:58:18.892Z,6.93
2018-06-10T08:00:48.166Z,5.63
2018-06-10T08:03:17.436Z,6.37
2018-06-10T08:05:46.873Z,4.93
2018-06-10T08:08:16.188Z,5.10
2018-06-10T08:10:45.578Z,6.10
2018-06-10T08:13:14.971Z,5.67
2018-06-10T08:15:44.255Z,6.47
2018-06-10T08:18:13.118Z,5.30
2018-06-10T08:20:42.337Z,5.27
2018-06-10T08:23:11.576Z,5.40
2018-06-10T08:25:40.851Z,6.37
2018-06-10T08:28:10.177Z,6.30
2018-06-10T08:30:39.585Z,5.47
2018-06-10T08:33:08.854Z,4.87
2018-06-10T08:35:38.153Z,5.57
2018-06-10T08:38:07.582Z,5.10
2018-06-10T08:40:37.043Z,6.10
2018-06-10T08:43:05.796Z,5.33
2018-06-10T08:45:35.187Z,5.60
2018-06-10T08:48:04.473Z,5.60
2018-06-10T08:50:33.755Z,5.50
2018-06-10T08:53:03.086Z,5.40
2018-06-10T08:55:32.375Z,5.53
2018-06-10T08:58:01.769Z,4.47
2018-06-10T09:00:31.150Z,5.10
2018-06-10T09:03:00.540Z,4.30
2018-06-10T09:05:29.826Z,6.30
2018-06-10T09:07:58.678Z,5.07
2018-06-10T09:10:27.927Z,4.50
2018-06-10T09:12:57.224Z,4.80
2018-06-10T09:15:25.939Z,5.13
2018-06-10T09:17:55.292Z,5.03
2018-06-10T09:20:24.712Z,4.60
2018-06-10T09:22:53.991Z,4.90
2018-06-10T09:25:23.285Z,5.20
2018-06-10T09:27:52.521Z,5.30
2018-06-10T09:30:21.277Z,5.13
2018-06-10T09:32:50.597Z,5.20
2018-06-10T09:35:19.358Z,5.60
2018-06-10T09:37:48.659Z,5.80
2018-06-10T09:40:18.069Z,6.37
2018-06-10T09:42:47.366Z,6.10
2018-06-10T09:45:16.780Z,6.20
2018-06-10T09:47:46.064Z,6.00
2018-06-10T09:50:15.482Z,4.20
2018-06-10T09:52:44.792Z,5.90
2018-06-10T09:55:14.185Z,5.10
2018-06-10T09:57:43.390Z,6.30
2018-06-10T10:00:16.885Z,5.37
2018-06-10T10:02:49.060Z,4.87
2018-06-10T10:05:18.556Z,4.60
2018-06-10T10:07:47.840Z,4.77
2018-06-10T10:10:17.128Z,5.67
2018-06-10T10:12:46.468Z,5.07
2018-06-10T10:15:15.215Z,3.73
2018-06-10T10:17:44.488Z,4.00
2018-06-10T10:20:13.762Z,5.13
2018-06-10T10:22:43.050Z,5.37
2018-06-10T10:25:12.318Z,4.70
2018-06-10T10:27:41.629Z,6.47
2018-06-10T10:30:10.925Z,4.30
2018-06-10T10:32:40.237Z,4.80
2018-06-10T10:35:09.537Z,3.87
2018-06-10T10:37:38.818Z,3.67
2018-06-10T10:40:08.121Z,3.40
2018-06-10T10:42:42.444Z,3.37
2018-06-10T10:45:11.692Z,3.50
2018-06-10T10:47:40.997Z,4.20
2018-06-10T10:50:10.288Z,3.00
2018-06-10T10:52:39.592Z,3.60
2018-06-10T10:55:08.841Z,3.10
2018-06-10T10:57:41.450Z,3.40
2018-06-10T11:00:10.177Z,2.77
2018-06-10T11:02:39.563Z,3.13
2018-06-10T11:05:08.871Z,4.00
2018-06-10T11:07:38.164Z,3.03
2018-06-10T11:10:07.831Z,3.40
2018-06-10T11:12:37.145Z,2.70
2018-06-10T11:15:06.450Z,2.83
2018-06-10T11:17:35.898Z,2.80
2018-06-10T11:20:05.183Z,3.03
2018-06-10T11:22:34.460Z,3.70
2018-06-10T11:25:03.848Z,3.57
2018-06-10T11:27:32.868Z,3.70
2018-06-10T11:30:02.398Z,3.33
2018-06-10T11:32:31.764Z,3.70
2018-06-10T11:35:00.989Z,3.20
2018-06-10T11:37:30.319Z,3.70
2018-06-10T11:39:59.619Z,3.73
2018-06-10T11:42:28.918Z,3.50
2018-06-10T11:44:58.155Z,3.53
2018-06-10T11:47:26.877Z,3.87
2018-06-10T11:49:56.618Z,4.37
2018-06-10T11:52:25.913Z,4.10
2018-06-10T11:54:55.826Z,3.50
2018-06-10T11:57:25.082Z,3.70
2018-06-10T11:59:54.537Z,4.30
2018-06-10T12:02:23.903Z,3.40
2018-06-10T12:04:53.196Z,3.30
2018-06-10T12:07:22.466Z,4.13
2018-06-10T12:09:51.208Z,3.77
2018-06-10T12:12:20.527Z,3.07
2018-06-10T12:14:49.810Z,4.37
2018-06-10T12:17:19.180Z,3.97
2018-06-10T12:19:49.248Z,3.50
2018-06-10T12:22:18.703Z,3.90
2018-06-10T12:24:48.273Z,5.20
2018-06-10T12:27:17.618Z,3.60
2018-06-10T12:29:47.067Z,4.03
2018-06-10T12:32:16.340Z,3.43
2018-06-10T12:34:45.747Z,3.43
2018-06-10T12:37:15.104Z,3.57
2018-06-10T12:39:44.497Z,3.90
2018-06-10T12:42:13.805Z,3.93
2018-06-10T12:44:43.085Z,4.60
2018-06-10T12:47:11.795Z,4.67
2018-06-10T12:49:41.088Z,4.13
2018-06-10T12:52:10.331Z,4.30
2018-06-10T12:54:39.544Z,3.97
2018-06-10T12:57:08.887Z,3.47
2018-06-10T12:59:38.273Z,3.50
2018-06-10T13:02:07.104Z,4.20
2018-06-10T13:04:36.427Z,3.87
2018-06-10T13:07:05.664Z,3.00
2018-06-10T13:09:34.484Z,3.03
2018-06-10T13:12:03.820Z,3.00
2018-06-10T13:14:33.109Z,3.23
2018-06-10T13:17:02.410Z,3.07
2018-06-10T13:19:31.687Z,3.10
2018-06-10T13:22:01.029Z,2.90
2018-06-10T13:24:30.359Z,2.90
2018-06-10T13:26:59.663Z,2.97
2018-06-10T13:29:28.951Z,2.60
2018-06-10T13:31:58.642Z,2.97
2018-06-10T13:34:27.901Z,2.40
2018-06-10T13:36:57.221Z,2.30
2018-06-10T13:39:26.672Z,3.10
2018-06-10T13:41:55.954Z,3.30
2018-06-10T13:44:25.307Z,2.70
2018-06-10T13:46:54.809Z,2.60
2018-06-10T13:49:24.126Z,2.37
2018-06-10T13:51:53.420Z,3.00
2018-06-10T13:54:22.741Z,2.70
2018-06-10T13:56:52.057Z,2.57
2018-06-10T13:59:21.321Z,3.00
2018-06-10T14:01:50.606Z,3.17
2018-06-10T14:04:19.828Z,2.77
2018-06-10T14:06:49.162Z,3.60
2018-06-10T14:09:18.436Z,3.80
2018-06-10T14:11:47.735Z,3.57
2018-06-10T14:14:16.984Z,3.80
2018-06-10T14:16:46.297Z,3.10
2018-06-10T14:19:15.706Z,2.87
2018-06-10T14:21:45.010Z,3.47
2018-06-10T14:24:15.182Z,2.70
2018-06-10T14:26:44.467Z,3.07
2018-06-10T14:29:13.853Z,2.67
2018-06-10T14:31:44.132Z,3.27
2018-06-10T14:34:13.628Z,3.20
2018-06-10T14:36:43.046Z,4.10
2018-06-10T14:39:12.318Z,2.83
2018-06-10T14:41:42.036Z,2.87
2018-06-10T14:44:11.351Z,3.60
2018-06-10T14:46:40.648Z,2.57
2018-06-10T14:49:10.087Z,3.10
2018-06-10T14:51:39.538Z,3.60
2018-06-10T14:54:08.874Z,4.13
2018-06-10T14:56:38.213Z,2.70
2018-06-10T14:59:07.491Z,2.93
2018-06-10T15:01:36.780Z,2.80
2018-06-10T15:04:06.120Z,3.27
2018-06-10T15:06:35.436Z,3.00
2018-06-10T15:09:04.608Z,3.30
2018-06-10T15:11:33.991Z,4.03
2018-06-10T15:14:08.625Z,3.80
2018-06-10T15:16:37.880Z,2.70
2018-06-10T15:19:07.303Z,3.00
2018-06-10T15:21:36.613Z,3.20
2018-06-10T15:24:06.616Z,3.83
2018-06-10T15:26:36.395Z,3.63
2018-06-10T15:29:05.792Z,3.43
2018-06-10T15:31:35.143Z,3.70
2018-06-10T15:34:04.470Z,3.07
2018-06-10T15:36:33.806Z,2.97
2018-06-10T15:39:03.201Z,3.83
2018-06-10T15:41:32.464Z,3.10
2018-06-10T15:44:01.872Z,3.87
2018-06-10T15:46:31.198Z,3.00
2018-06-10T15:48:59.940Z,4.43
2018-06-10T15:51:29.219Z,3.20
2018-06-10T15:53:58.472Z,3.53
2018-06-10T15:56:27.716Z,3.17
2018-06-10T15:58:57.039Z,3.60
2018-06-10T16:01:26.380Z,3.00
2018-06-10T16:03:55.263Z,3.50
2018-06-10T16:06:24.686Z,2.90
2018-06-10T16:08:54.064Z,3.23
2018-06-10T16:11:23.376Z,4.03
2018-06-10T16:13:52.165Z,3.70
2018-06-10T16:16:20.918Z,3.27
2018-06-10T16:18:50.258Z,3.40
2018-06-10T16:21:19.054Z,3.60
2018-06-10T16:23:48.318Z,4.10
2018-06-10T16:26:17.593Z,4.10
2018-06-10T16:28:46.905Z,3.20
2018-06-10T16:31:16.175Z,3.60
2018-06-10T16:33:45.943Z,3.90
2018-06-10T16:36:15.320Z,9.20
2018-06-10T16:38:44.726Z,4.00
2018-06-10T16:41:14.062Z,4.08
2018-06-10T16:43:43.397Z,4.57
2018-06-10T16:46:12.775Z,3.20
2018-06-10T16:48:45.295Z,3.10
2018-06-10T16:51:14.534Z,3.65
2018-06-10T16:53:44.402Z,3.70
2018-06-10T16:56:13.741Z,3.70
2018-06-10T16:58:44.256Z,3.17
2018-06-10T17:01:13.635Z,3.37
2018-06-10T17:03:42.911Z,4.10
2018-06-10T17:06:12.348Z,3.83
2018-06-10T17:08:41.748Z,3.87
2018-06-10T17:11:11.029Z,4.30
2018-06-10T17:13:40.391Z,4.30
2018-06-10T17:16:09.732Z,3.63
2018-06-10T17:18:39.010Z,4.37
2018-06-10T17:21:08.276Z,4.70
2018-06-10T17:23:37.491Z,3.47
2018-06-10T17:26:06.498Z,3.17
2018-06-10T17:28:35.839Z,3.47
2018-06-10T17:31:05.204Z,4.60
2018-06-10T17:33:34.435Z,4.17
2018-06-10T17:36:03.798Z,3.50
2018-06-10T17:38:33.137Z,4.07
2018-06-10T17:41:02.501Z,4.03
2018-06-10T17:43:31.849Z,4.37
2018-06-10T17:46:01.214Z,4.13
2018-06-10T17:48:30.573Z,3.83
2018-06-10T17:50:59.885Z,4.43
2018-06-10T17:53:28.634Z,4.10
2018-06-10T17:55:58.012Z,3.67
2018-06-10T17:58:27.289Z,4.60
2018-06-10T18:00:56.569Z,4.90
2018-06-10T18:03:26.254Z,4.37
2018-06-10T18:05:56.186Z,4.77
2018-06-10T18:08:25.696Z,4.60
2018-06-10T18:10:54.517Z,4.33
2018-06-10T18:13:27.162Z,4.50
2018-06-10T18:15:56.622Z,4.80
2018-06-10T18:18:25.998Z,4.73
2018-06-10T18:20:55.296Z,4.60
2018-06-10T18:23:24.585Z,4.00
2018-06-10T18:25:53.971Z,5.27
2018-06-10T18:28:22.799Z,4.63
2018-06-10T18:30:52.063Z,4.93
2018-06-10T18:33:21.375Z,3.53
2018-06-10T18:35:50.615Z,4.30
2018-06-10T18:38:19.887Z,4.53
2018-06-10T18:40:49.182Z,4.67
2018-06-10T18:43:18.419Z,3.97
2018-06-10T18:45:47.785Z,3.80
2018-06-10T18:48:17.062Z,4.00
2018-06-10T18:50:46.439Z,4.10
2018-06-10T18:53:15.773Z,3.50
2018-06-10T18:55:45.059Z,4.10
2018-06-10T18:58:14.333Z,3.57
2018-06-10T19:00:43.731Z,5.50
2018-06-10T19:03:13.007Z,4.60
2018-06-10T19:05:42.430Z,4.90
2018-06-10T19:08:12.103Z,4.77
2018-06-10T19:10:41.343Z,4.43
2018-06-10T19:13:10.584Z,4.30
2018-06-10T19:15:39.984Z,4.40
2018-06-10T19:18:08.892Z,4.90
2018-06-10T19:20:38.607Z,4.57
2018-06-10T19:23:08.108Z,4.80
2018-06-10T19:25:37.424Z,4.07
2018-06-10T19:28:07.207Z,5.03
2018-06-10T19:30:36.775Z,6.03
2018-06-10T19:33:06.273Z,5.40
2018-06-10T19:35:36.011Z,5.00
2018-06-10T19:38:05.952Z,5.27
2018-06-10T19:40:35.723Z,8.43
2018-06-10T19:43:05.333Z,8.70
2018-06-10T19:45:34.782Z,6.90
2018-06-10T19:48:04.215Z,6.80
2018-06-10T19:50:33.599Z,6.70
2018-06-10T19:53:02.881Z,5.47
2018-06-10T19:55:32.132Z,5.10
2018-06-10T19:58:01.573Z,5.97
2018-06-10T20:00:30.839Z,5.10
2018-06-10T20:03:00.169Z,4.60
2018-06-10T20:05:29.421Z,4.93
2018-06-10T20:07:58.679Z,4.63
2018-06-10T20:10:27.990Z,4.80
2018-06-10T20:12:57.309Z,5.20
2018-06-10T20:15:26.664Z,5.23
2018-06-10T20:17:56.267Z,4.60
2018-06-10T20:20:25.003Z,5.23
2018-06-10T20:22:54.257Z,5.10
2018-06-10T20:25:23.089Z,5.77
2018-06-10T20:27:52.348Z,6.03
2018-06-10T20:30:25.753Z,6.30
2018-06-10T20:32:55.074Z,5.00
2018-06-10T20:35:24.359Z,5.63
2018-06-10T20:38:00.083Z,5.40
2018-06-10T20:40:29.371Z,6.13
2018-06-10T20:42:58.659Z,7.20
2018-06-10T20:45:27.974Z,5.90
2018-06-10T20:47:57.292Z,5.53
2018-06-10T20:50:26.565Z,5.70
2018-06-10T20:52:55.848Z,5.00
2018-06-10T20:55:25.181Z,5.10
2018-06-10T20:57:54.459Z,6.23
2018-06-10T21:00:23.884Z,6.07
2018-06-10T21:02:53.343Z,6.17
2018-06-10T21:05:22.636Z,6.00
2018-06-10T21:07:52.321Z,6.97
2018-06-10T21:10:21.580Z,6.07
2018-06-10T21:12:51.966Z,5.73
2018-06-10T21:15:21.502Z,6.40
2018-06-10T21:17:50.916Z,7.08
2018-06-10T21:20:25.198Z,5.90
2018-06-10T21:22:54.632Z,5.90
2018-06-10T21:25:24.089Z,6.77
2018-06-10T21:28:03.192Z,5.40
2018-06-10T21:30:32.598Z,6.07
2018-06-10T21:33:02.067Z,6.50
2018-06-10T21:35:31.648Z,5.90
2018-06-10T21:38:00.931Z,5.70
2018-06-10T21:40:30.261Z,5.60
2018-06-10T21:42:59.521Z,6.00
2018-06-10T21:45:28.768Z,6.60
2018-06-10T21:47:58.023Z,5.37
2018-06-10T21:50:27.355Z,6.23
2018-06-10T21:52:56.685Z,5.17
2018-06-10T21:55:25.956Z,5.17
2018-06-10T21:57:55.312Z,7.37
2018-06-10T22:00:25.796Z,4.60
2018-06-10T22:02:55.149Z,6.17
2018-06-10T22:05:24.473Z,6.70
2018-06-10T22:07:53.749Z,5.40
2018-06-10T22:10:23.038Z,5.63
2018-06-10T22:12:52.313Z,6.27
2018-06-10T22:15:21.576Z,6.10
2018-06-10T22:17:50.829Z,5.93
2018-06-10T22:20:20.226Z,6.07
2018-06-10T22:22:49.491Z,5.80
2018-06-10T22:25:18.742Z,6.70
2018-06-10T22:27:48.084Z,5.80
2018-06-10T22:30:17.312Z,6.10
2018-06-10T22:32:46.588Z,6.37
2018-06-10T22:35:15.858Z,6.30
2018-06-10T22:37:45.124Z,7.93
2018-06-10T22:40:14.416Z,6.97
2018-06-10T22:42:43.763Z,7.67
2018-06-10T22:45:13.027Z,8.10
2018-06-10T22:47:42.260Z,6.80
2018-06-10T22:50:11.541Z,7.10
2018-06-10T22:52:40.798Z,6.30
2018-06-10T22:55:10.092Z,7.23
2018-06-10T22:57:39.357Z,6.90
2018-06-10T23:00:08.814Z,6.33
2018-06-10T23:02:38.081Z,6.87
2018-06-10T23:05:07.373Z,6.60
2018-06-10T23:07:36.620Z,6.47
2018-06-10T23:10:05.906Z,6.37
2018-06-10T23:12:35.292Z,6.53
2018-06-10T23:15:04.631Z,6.97
2018-06-10T23:17:33.902Z,7.70
2018-06-10T23:20:03.159Z,6.17
2018-06-10T23:22:32.433Z,6.23
2018-06-10T23:25:01.726Z,6.33
2018-06-10T23:27:31.028Z,7.73
2018-06-10T23:30:00.291Z,7.13
2018-06-10T23:32:29.555Z,6.70
2018-06-10T23:34:58.859Z,6.13
2018-06-10T23:37:28.103Z,5.90
2018-06-10T23:39:57.337Z,6.57
2018-06-10T23:42:26.671Z,6.80
2018-06-10T23:44:55.992Z,6.73
2018-06-10T23:47:25.331Z,7.40
2018-06-10T23:49:54.652Z,6.33
2018-06-10T23:52:24.052Z,8.03
2018-06-10T23:54:53.361Z,8.20
2018-06-10T23:57:23.013Z,8.60
2018-06-10T23:59:52.211Z,8.10
